createdAt,value
2022-10-26T00:01:24.229Z,5.38
2022-10-26T00:03:52.739Z,5.38
2022-10-26T00:06:23.075Z,4.95
2022-10-26T00:08:53.670Z,4.50
2022-10-26T00:11:23.238Z,4.70
2022-10-26T00:13:51.744Z,5.10
2022-10-26T00:16:27.604Z,4.95
2022-10-26T00:18:56.191Z,4.70
2022-10-26T00:21:24.293Z,4.78
2022-10-26T00:23:52.416Z,5.40
2022-10-26T00:26:20.426Z,4.70
2022-10-26T00:28:49.484Z,4.82
2022-10-26T00:31:21.246Z,4.68
2022-10-26T00:33:52.836Z,5.05
2022-10-26T00:36:21.500Z,5.63
2022-10-26T00:38:52.595Z,5.13
2022-10-26T00:41:30.527Z,4.70
2022-10-26T00:43:58.803Z,5.55
2022-10-26T00:46:39.896Z,5.00
2022-10-26T00:49:17.033Z,5.47
2022-10-26T00:51:50.525Z,4.75
2022-10-26T00:54:20.067Z,5.40
2022-10-26T00:56:50.421Z,5.30
2022-10-26T00:59:20.495Z,4.32
2022-10-26T01:01:50.028Z,4.75
2022-10-26T01:04:19.052Z,4.78
2022-10-26T01:06:48.034Z,4.05
2022-10-26T01:09:21.212Z,5.13
2022-10-26T01:11:50.289Z,4.72
2022-10-26T01:14:20.801Z,4.63
2022-10-26T01:16:54.968Z,4.20
2022-10-26T01:19:43.765Z,4.25
2022-10-26T01:22:21.339Z,4.40
2022-10-26T01:25:27.278Z,5.30
2022-10-26T01:27:55.375Z,6.05
2022-10-26T01:30:32.087Z,6.82
2022-10-26T01:33:36.693Z,7.32
2022-10-26T01:36:28.411Z,4.90
2022-10-26T01:39:28.349Z,6.57
2022-10-26T01:42:02.782Z,6.82
2022-10-26T01:44:44.005Z,9.40
2022-10-26T01:47:15.248Z,8.35
2022-10-26T01:49:51.923Z,7.22
2022-10-26T01:52:21.763Z,5.25
2022-10-26T01:54:49.763Z,4.85
2022-10-26T01:57:21.054Z,4.25
2022-10-26T02:00:10.506Z,4.68
2022-10-26T02:02:44.949Z,4.20
2022-10-26T02:05:33.493Z,5.05
2022-10-26T02:08:19.889Z,4.60
2022-10-26T02:11:03.699Z,5.32
2022-10-26T02:13:41.475Z,4.57
2022-10-26T02:16:34.421Z,4.35
2022-10-26T02:19:08.851Z,4.40
2022-10-26T02:21:41.944Z,4.30
2022-10-26T02:24:14.672Z,4.43
2022-10-26T02:26:46.613Z,4.60
2022-10-26T02:29:19.223Z,5.20
2022-10-26T02:31:51.488Z,4.35
2022-10-26T02:34:25.266Z,4.13
2022-10-26T02:36:58.309Z,3.80
2022-10-26T02:39:29.993Z,3.83
2022-10-26T02:41:59.876Z,3.90
2022-10-26T02:44:31.319Z,3.88
2022-10-26T02:47:00.367Z,4.15
2022-10-26T02:49:29.130Z,3.67
2022-10-26T02:52:07.664Z,4.03
2022-10-26T02:54:59.859Z,3.78
2022-10-26T02:57:40.513Z,4.15
2022-10-26T03:02:55.074Z,4.13
2022-10-26T03:05:29.167Z,4.00
2022-10-26T03:07:57.687Z,4.10
2022-10-26T03:10:26.949Z,3.83
2022-10-26T03:12:55.161Z,4.13
2022-10-26T03:15:24.838Z,4.10
2022-10-26T03:17:52.897Z,4.32
2022-10-26T03:20:20.889Z,4.07
2022-10-26T03:22:49.280Z,3.83
2022-10-26T03:25:18.169Z,3.78
2022-10-26T03:27:46.433Z,3.33
2022-10-26T03:30:14.603Z,3.47
2022-10-26T03:32:43.486Z,3.60
2022-10-26T03:35:11.422Z,3.38
2022-10-26T03:37:39.338Z,3.55
2022-10-26T03:40:09.640Z,3.67
2022-10-26T03:42:38.360Z,3.20
2022-10-26T03:45:07.824Z,3.80
2022-10-26T03:47:37.508Z,3.75
2022-10-26T03:52:34.102Z,3.58
2022-10-26T03:55:03.278Z,3.60
2022-10-26T03:57:31.209Z,3.88
2022-10-26T03:59:59.155Z,3.17
2022-10-26T04:02:28.075Z,3.20
2022-10-26T04:04:56.054Z,3.58
2022-10-26T04:07:24.051Z,3.60
2022-10-26T04:09:52.249Z,3.75
2022-10-26T04:12:20.244Z,3.97
2022-10-26T04:14:48.300Z,3.50
2022-10-26T04:17:16.643Z,4.15
2022-10-26T04:19:44.625Z,3.70
2022-10-26T04:22:12.623Z,3.33
2022-10-26T04:24:40.701Z,3.95
2022-10-26T04:27:08.691Z,3.60
2022-10-26T04:29:36.622Z,3.28
2022-10-26T04:32:04.929Z,2.97
2022-10-26T04:34:32.804Z,3.80
2022-10-26T04:37:00.802Z,3.50
2022-10-26T04:39:30.773Z,3.17
2022-10-26T04:41:58.752Z,3.38
2022-10-26T04:44:26.681Z,3.25
2022-10-26T04:46:55.691Z,3.22
2022-10-26T04:49:23.658Z,3.22
2022-10-26T04:51:51.674Z,3.45
2022-10-26T04:54:19.868Z,3.17
2022-10-26T04:56:47.876Z,3.42
2022-10-26T04:59:16.101Z,3.13
2022-10-26T05:01:44.384Z,3.13
2022-10-26T05:04:12.615Z,3.13
2022-10-26T05:06:40.651Z,2.78
2022-10-26T05:09:08.866Z,2.75
2022-10-26T05:11:36.815Z,3.15
2022-10-26T05:14:04.973Z,3.47
2022-10-26T05:16:35.402Z,3.88
2022-10-26T05:19:05.038Z,3.47
2022-10-26T05:21:33.032Z,2.78
2022-10-26T05:24:02.627Z,3.08
2022-10-26T05:26:30.604Z,3.30
2022-10-26T05:28:58.554Z,2.55
2022-10-26T05:31:26.694Z,2.97
2022-10-26T05:33:54.718Z,2.83
2022-10-26T05:36:22.675Z,2.67
2022-10-26T05:38:51.555Z,2.65
2022-10-26T05:41:19.561Z,2.90
2022-10-26T05:43:49.328Z,2.97
2022-10-26T05:48:46.202Z,3.20
2022-10-26T05:51:14.841Z,3.22
2022-10-26T05:53:42.914Z,3.33
2022-10-26T05:56:36.722Z,3.13
2022-10-26T05:59:12.992Z,2.75
2022-10-26T06:01:49.928Z,2.28
2022-10-26T06:04:39.586Z,2.90
2022-10-26T06:07:16.790Z,3.08
2022-10-26T06:09:47.501Z,3.08
2022-10-26T06:12:19.270Z,3.00
2022-10-26T06:14:48.422Z,3.25
2022-10-26T06:17:34.810Z,2.72
2022-10-26T06:20:26.665Z,2.80
2022-10-26T06:23:13.350Z,2.63
2022-10-26T06:26:02.226Z,3.67
2022-10-26T06:29:10.819Z,2.97
2022-10-26T06:31:38.873Z,2.95
2022-10-26T06:34:06.960Z,2.80
2022-10-26T06:36:35.955Z,3.22
2022-10-26T06:39:07.744Z,2.97
2022-10-26T06:41:37.791Z,3.30
2022-10-26T06:44:08.434Z,2.83
2022-10-26T06:46:39.261Z,2.58
2022-10-26T06:49:12.971Z,2.95
2022-10-26T06:52:04.304Z,2.80
2022-10-26T06:54:56.215Z,3.28
2022-10-26T06:57:28.692Z,3.95
2022-10-26T07:00:03.437Z,2.92
2022-10-26T07:02:33.696Z,3.42
2022-10-26T07:05:03.610Z,2.85
2022-10-26T07:10:00.095Z,2.58
2022-10-26T07:12:32.234Z,2.47
2022-10-26T07:15:01.621Z,2.75
2022-10-26T07:17:32.000Z,3.05
2022-10-26T07:20:01.684Z,2.63
2022-10-26T07:22:30.964Z,2.55
2022-10-26T07:25:02.047Z,3.03
2022-10-26T07:27:32.475Z,3.10
2022-10-26T07:30:00.391Z,2.85
2022-10-26T07:32:28.560Z,3.10
2022-10-26T07:34:57.718Z,2.50
2022-10-26T07:37:25.701Z,3.75
2022-10-26T07:39:53.635Z,2.78
2022-10-26T07:42:22.493Z,3.00
2022-10-26T07:44:50.509Z,3.30
2022-10-26T07:47:18.531Z,3.10
2022-10-26T07:49:47.494Z,3.47
2022-10-26T07:52:15.493Z,2.75
2022-10-26T07:54:43.500Z,2.55
2022-10-26T07:57:13.097Z,2.55
2022-10-26T07:59:41.089Z,2.78
2022-10-26T08:02:10.818Z,7.53
2022-10-26T08:04:39.883Z,3.03
2022-10-26T08:07:07.807Z,2.50
2022-10-26T08:09:35.885Z,2.63
2022-10-26T08:12:05.512Z,2.83
2022-10-26T08:14:33.494Z,2.55
2022-10-26T08:17:01.573Z,2.45
2022-10-26T08:19:31.696Z,2.22
2022-10-26T08:21:59.624Z,2.60
2022-10-26T08:24:27.730Z,3.03
2022-10-26T08:26:59.309Z,2.88
2022-10-26T08:29:27.224Z,2.42
2022-10-26T08:31:55.281Z,2.50
2022-10-26T08:34:23.500Z,2.50
2022-10-26T08:36:51.419Z,2.83
2022-10-26T08:39:19.404Z,2.75
2022-10-26T08:41:54.476Z,2.70
2022-10-26T08:44:38.324Z,2.40
2022-10-26T08:50:04.248Z,2.75
2022-10-26T08:52:42.676Z,2.63
2022-10-26T08:55:18.898Z,2.50
2022-10-26T08:57:51.276Z,2.38
2022-10-26T09:00:22.621Z,2.70
2022-10-26T09:02:52.118Z,2.40
2022-10-26T09:08:12.187Z,2.63
2022-10-26T09:11:10.021Z,2.15
2022-10-26T09:13:58.884Z,2.40
2022-10-26T09:16:40.020Z,3.03
2022-10-26T09:19:54.755Z,2.40
2022-10-26T09:22:33.706Z,2.25
2022-10-26T09:25:20.216Z,2.10
2022-10-26T09:27:57.662Z,2.80
2022-10-26T09:30:25.750Z,2.40
2022-10-26T09:33:16.212Z,2.25
2022-10-26T09:35:53.272Z,2.40
2022-10-26T09:38:44.189Z,2.47
2022-10-26T09:41:21.168Z,2.78
2022-10-26T09:44:30.452Z,3.95
2022-10-26T09:47:07.445Z,3.22
2022-10-26T09:50:08.441Z,2.70
2022-10-26T09:52:36.446Z,2.58
2022-10-26T09:55:04.568Z,2.80
2022-10-26T09:57:33.094Z,2.67
2022-10-26T10:00:01.257Z,2.90
2022-10-26T10:02:39.535Z,2.72
2022-10-26T10:05:49.829Z,3.10
2022-10-26T10:08:37.697Z,2.97
2022-10-26T10:11:12.269Z,2.50
2022-10-26T10:13:43.304Z,3.60
2022-10-26T10:16:25.520Z,3.15
2022-10-26T10:18:57.512Z,2.50
2022-10-26T10:21:46.571Z,2.78
2022-10-26T10:24:37.604Z,2.45
2022-10-26T10:27:17.321Z,2.65
2022-10-26T10:32:23.981Z,2.90
2022-10-26T10:34:54.957Z,3.00
2022-10-26T10:37:28.485Z,3.10
2022-10-26T10:40:20.949Z,3.08
2022-10-26T10:42:51.203Z,3.05
2022-10-26T10:45:28.754Z,3.03
2022-10-26T10:48:02.446Z,3.03
2022-10-26T10:50:32.190Z,3.22
2022-10-26T10:56:15.347Z,2.72
2022-10-26T10:59:02.744Z,2.75
2022-10-26T11:01:41.450Z,3.10
2022-10-26T11:04:34.115Z,3.15
2022-10-26T11:07:05.192Z,2.92
2022-10-26T11:09:37.660Z,2.78
2022-10-26T11:12:30.007Z,3.40
2022-10-26T11:15:06.947Z,2.85
2022-10-26T11:17:47.694Z,3.30
2022-10-26T11:20:24.335Z,3.13
2022-10-26T11:23:10.754Z,2.83
2022-10-26T11:25:51.407Z,3.55
2022-10-26T11:28:38.268Z,3.45
2022-10-26T11:31:15.239Z,2.95
2022-10-26T11:33:49.362Z,2.70
2022-10-26T11:36:23.580Z,3.17
2022-10-26T11:39:06.333Z,3.08
2022-10-26T11:41:43.857Z,3.63
2022-10-26T11:44:19.049Z,8.52
2022-10-26T11:47:04.814Z,4.40
2022-10-26T11:50:17.114Z,6.63
2022-10-26T11:52:49.461Z,5.10
2022-10-26T11:55:19.703Z,4.65
2022-10-26T11:57:48.361Z,4.75
2022-10-26T12:00:22.244Z,4.85
2022-10-26T12:03:09.546Z,4.38
2022-10-26T12:05:49.053Z,4.05
2022-10-26T12:08:28.721Z,4.60
2022-10-26T12:13:58.245Z,4.30
2022-10-26T12:16:48.215Z,4.05
2022-10-26T12:19:23.381Z,4.78
2022-10-26T12:21:52.596Z,5.07
2022-10-26T12:24:24.568Z,8.63
2022-10-26T12:26:54.311Z,13.05
2022-10-26T12:29:32.144Z,5.97
2022-10-26T12:32:01.434Z,4.82
2022-10-26T12:34:32.170Z,5.53
2022-10-26T12:37:00.159Z,4.78
2022-10-26T12:39:37.515Z,6.47
2022-10-26T12:42:11.416Z,11.60
2022-10-26T12:44:41.916Z,13.93
2022-10-26T12:47:11.753Z,15.07
2022-10-26T12:50:08.940Z,13.75
2022-10-26T12:52:43.543Z,12.82
2022-10-26T12:55:30.140Z,12.45
2022-10-26T12:58:20.229Z,10.65
2022-10-26T13:01:08.331Z,11.63
2022-10-26T13:03:59.471Z,21.33
2022-10-26T13:06:46.027Z,20.38
2022-10-26T13:09:30.329Z,18.42
2022-10-26T13:12:06.872Z,13.30
2022-10-26T13:14:43.677Z,13.40
2022-10-26T13:17:28.953Z,11.85
2022-10-26T13:20:01.259Z,10.32
2022-10-26T13:25:33.492Z,10.57
2022-10-26T13:28:27.449Z,9.65
2022-10-26T13:30:57.681Z,10.70
2022-10-26T13:33:40.708Z,10.68
2022-10-26T13:36:41.559Z,8.82
2022-10-26T13:39:21.315Z,9.15
2022-10-26T13:41:53.312Z,10.30
2022-10-26T13:44:26.874Z,8.98
2022-10-26T13:47:11.088Z,8.77
2022-10-26T13:49:46.310Z,9.25
2022-10-26T13:52:31.605Z,11.85
2022-10-26T13:55:09.044Z,10.68
2022-10-26T13:57:42.317Z,11.68
2022-10-26T14:00:22.952Z,12.25
2022-10-26T14:02:52.257Z,11.57
2022-10-26T14:05:20.809Z,12.13
2022-10-26T14:07:55.735Z,11.65
2022-10-26T14:10:31.732Z,13.13
2022-10-26T14:13:02.019Z,11.50
2022-10-26T14:15:33.080Z,10.27
2022-10-26T14:18:03.426Z,10.07
2022-10-26T14:20:33.037Z,11.73
2022-10-26T14:25:41.957Z,10.05
2022-10-26T14:28:30.165Z,12.15
2022-10-26T14:31:28.118Z,10.63
2022-10-26T14:33:57.742Z,9.90
2022-10-26T14:36:55.147Z,10.70
2022-10-26T14:39:44.298Z,10.90
2022-10-26T14:42:23.072Z,10.00
2022-10-26T14:44:51.098Z,11.45
2022-10-26T14:47:25.827Z,10.93
2022-10-26T14:49:54.431Z,10.93
2022-10-26T14:52:31.113Z,12.80
2022-10-26T14:55:04.283Z,12.80
2022-10-26T14:57:35.638Z,10.77
2022-10-26T15:00:16.435Z,13.30
2022-10-26T15:02:49.616Z,11.30
2022-10-26T15:05:33.219Z,12.43
2022-10-26T15:08:03.909Z,11.07
2022-10-26T15:10:38.050Z,10.95
2022-10-26T15:13:32.038Z,10.98
2022-10-26T15:16:17.759Z,11.40
2022-10-26T15:18:48.341Z,10.93
2022-10-26T15:21:27.432Z,11.60
2022-10-26T15:23:56.989Z,10.52
2022-10-26T15:26:26.266Z,10.27
2022-10-26T15:28:56.552Z,11.32
2022-10-26T15:31:33.994Z,11.38
2022-10-26T15:34:01.907Z,11.13
2022-10-26T15:36:32.167Z,10.68
2022-10-26T15:39:00.569Z,11.77
2022-10-26T15:41:49.355Z,11.13
2022-10-26T15:44:23.005Z,11.23
2022-10-26T15:46:51.283Z,12.02
2022-10-26T15:49:22.514Z,12.38
2022-10-26T15:51:50.667Z,12.48
2022-10-26T15:54:18.774Z,10.32
2022-10-26T15:56:47.923Z,11.40
2022-10-26T15:59:18.312Z,10.88
2022-10-26T16:01:46.758Z,10.93
2022-10-26T16:04:15.681Z,11.65
2022-10-26T16:06:43.830Z,11.80
2022-10-26T16:09:16.663Z,11.40
2022-10-26T16:11:47.680Z,12.68
2022-10-26T16:14:15.622Z,11.63
2022-10-26T16:16:44.748Z,11.48
2022-10-26T16:22:02.220Z,11.35
2022-10-26T16:24:32.046Z,11.57
2022-10-26T16:27:00.052Z,10.95
2022-10-26T16:29:28.065Z,11.10
2022-10-26T16:31:56.142Z,11.48
2022-10-26T16:34:24.065Z,11.82
2022-10-26T16:36:52.018Z,12.43
2022-10-26T16:39:20.217Z,11.95
2022-10-26T16:41:51.232Z,11.65
2022-10-26T16:44:19.251Z,11.80
2022-10-26T16:46:47.377Z,12.10
2022-10-26T16:49:15.362Z,11.88
2022-10-26T16:51:43.382Z,11.52
2022-10-26T16:54:11.494Z,10.93
2022-10-26T16:56:39.375Z,11.65
2022-10-26T16:59:07.286Z,12.27
2022-10-26T17:01:36.405Z,11.55
2022-10-26T17:04:04.559Z,11.63
2022-10-26T17:06:32.653Z,11.93
2022-10-26T17:09:00.788Z,13.27
2022-10-26T17:11:28.764Z,12.88
2022-10-26T17:13:57.258Z,12.60
2022-10-26T17:16:26.651Z,10.50
2022-10-26T17:18:56.422Z,11.65
2022-10-26T17:21:46.160Z,11.00
2022-10-26T17:24:14.311Z,11.20
2022-10-26T17:26:43.027Z,12.63
2022-10-26T17:29:15.413Z,12.40
2022-10-26T17:31:43.459Z,11.73
2022-10-26T17:34:11.438Z,11.25
2022-10-26T17:36:39.771Z,12.18
2022-10-26T17:39:07.729Z,11.77
2022-10-26T17:41:35.731Z,10.88
2022-10-26T17:44:04.628Z,10.40
2022-10-26T17:46:32.616Z,11.43
2022-10-26T17:49:01.881Z,11.10
2022-10-26T17:51:31.914Z,11.85
2022-10-26T17:54:00.578Z,12.02
2022-10-26T17:56:32.166Z,11.77
2022-10-26T17:59:08.468Z,11.18
2022-10-26T18:01:36.451Z,11.18
2022-10-26T18:04:04.608Z,13.02
2022-10-26T18:06:32.843Z,16.38
2022-10-26T18:09:00.909Z,21.38
2022-10-26T18:11:28.972Z,13.82
2022-10-26T18:13:58.395Z,11.95
2022-10-26T18:16:28.514Z,11.02
2022-10-26T18:19:02.506Z,13.75
2022-10-26T18:21:33.189Z,13.75
2022-10-26T18:24:01.147Z,13.73
2022-10-26T18:26:31.272Z,15.60
2022-10-26T18:29:01.506Z,14.68
2022-10-26T18:31:31.719Z,12.10
2022-10-26T18:34:02.429Z,14.23
2022-10-26T18:36:32.834Z,11.05
2022-10-26T18:39:01.200Z,12.48
2022-10-26T18:41:30.101Z,10.80
2022-10-26T18:44:02.728Z,11.82
2022-10-26T18:46:34.811Z,11.38
2022-10-26T18:49:02.813Z,11.93
2022-10-26T18:51:34.634Z,12.02
2022-10-26T18:54:03.088Z,12.73
2022-10-26T18:56:31.493Z,12.63
2022-10-26T18:59:02.302Z,11.60
2022-10-26T19:01:33.352Z,11.57
2022-10-26T19:04:08.882Z,12.27
2022-10-26T19:06:40.231Z,11.43
2022-10-26T19:09:10.944Z,12.27
2022-10-26T19:11:40.732Z,12.25
2022-10-26T19:14:09.550Z,12.38
2022-10-26T19:16:45.726Z,11.95
2022-10-26T19:19:15.585Z,12.02
2022-10-26T19:21:44.241Z,11.23
2022-10-26T19:24:16.587Z,10.30
2022-10-26T19:26:45.051Z,11.63
2022-10-26T19:29:16.486Z,10.63
2022-10-26T19:31:46.836Z,12.07
2022-10-26T19:34:16.538Z,12.50
2022-10-26T19:39:17.694Z,11.15
2022-10-26T19:41:47.146Z,11.75
2022-10-26T19:44:16.172Z,11.75
2022-10-26T19:46:45.538Z,11.82
2022-10-26T19:49:13.652Z,10.68
2022-10-26T19:51:42.232Z,12.18
2022-10-26T19:54:10.418Z,10.95
2022-10-26T19:56:39.023Z,10.98
2022-10-26T19:59:09.054Z,10.82
2022-10-26T20:01:37.627Z,10.32
2022-10-26T20:04:06.828Z,11.55
2022-10-26T20:06:35.719Z,11.23
2022-10-26T20:09:05.839Z,10.35
2022-10-26T20:11:35.702Z,11.82
2022-10-26T20:14:05.968Z,11.10
2022-10-26T20:16:34.181Z,11.02
2022-10-26T20:19:02.325Z,11.25
2022-10-26T20:21:30.260Z,10.95
2022-10-26T20:24:03.776Z,10.38
2022-10-26T20:26:33.838Z,10.75
2022-10-26T20:29:03.699Z,10.65
2022-10-26T20:31:31.865Z,9.75
2022-10-26T20:33:59.812Z,11.25
2022-10-26T20:36:27.824Z,10.88
2022-10-26T20:38:56.283Z,11.00
2022-10-26T20:41:24.533Z,11.05
2022-10-26T20:43:55.679Z,10.13
2022-10-26T20:46:28.180Z,11.15
2022-10-26T20:48:56.558Z,10.77
2022-10-26T20:51:52.004Z,12.00
2022-10-26T20:54:40.518Z,10.35
2022-10-26T20:57:16.607Z,11.18
2022-10-26T20:59:49.757Z,10.65
2022-10-26T21:02:17.713Z,11.75
2022-10-26T21:04:45.800Z,11.85
2022-10-26T21:07:14.200Z,11.55
2022-10-26T21:09:42.276Z,11.23
2022-10-26T21:12:11.676Z,13.93
2022-10-26T21:14:41.374Z,14.40
2022-10-26T21:17:09.998Z,15.23
2022-10-26T21:19:42.111Z,11.77
2022-10-26T21:22:10.158Z,12.68
2022-10-26T21:24:38.159Z,12.48
2022-10-26T21:27:06.342Z,11.75
2022-10-26T21:29:34.228Z,12.15
2022-10-26T21:32:02.198Z,12.48
2022-10-26T21:34:31.234Z,12.25
2022-10-26T21:36:59.185Z,10.75
2022-10-26T21:39:27.109Z,10.98
2022-10-26T21:41:55.422Z,11.90
2022-10-26T21:44:39.871Z,11.63
2022-10-26T21:47:10.466Z,10.77
2022-10-26T21:52:07.552Z,9.80
2022-10-26T21:54:35.601Z,11.05
2022-10-26T21:57:03.516Z,11.27
2022-10-26T21:59:31.468Z,11.05
2022-10-26T22:01:59.576Z,10.65
2022-10-26T22:04:28.728Z,10.27
2022-10-26T22:06:56.695Z,10.70
2022-10-26T22:09:25.997Z,10.82
2022-10-26T22:11:53.939Z,10.70
2022-10-26T22:14:22.675Z,9.93
2022-10-26T22:16:51.468Z,9.80
2022-10-26T22:19:19.474Z,11.00
2022-10-26T22:21:47.411Z,9.90
2022-10-26T22:24:17.672Z,10.25
2022-10-26T22:26:45.668Z,9.45
2022-10-26T22:29:13.666Z,10.00
2022-10-26T22:31:41.944Z,9.82
2022-10-26T22:34:16.297Z,9.52
2022-10-26T22:36:45.174Z,8.75
2022-10-26T22:39:14.645Z,9.48
2022-10-26T22:41:42.757Z,9.38
2022-10-26T22:44:10.717Z,10.02
2022-10-26T22:46:38.787Z,9.98
2022-10-26T22:49:06.725Z,9.38
2022-10-26T22:51:35.936Z,9.23
2022-10-26T22:55:05.758Z,9.63
2022-10-26T22:57:33.725Z,9.10
2022-10-26T23:00:01.650Z,8.23
2022-10-26T23:02:33.198Z,9.30
2022-10-26T23:05:01.213Z,8.98
2022-10-26T23:09:58.731Z,8.85
2022-10-26T23:12:26.687Z,8.65
2022-10-26T23:14:54.719Z,8.02
2022-10-26T23:17:23.619Z,8.70
2022-10-26T23:19:51.552Z,8.38
2022-10-26T23:22:19.512Z,8.73
2022-10-26T23:24:49.144Z,8.48
2022-10-26T23:32:17.756Z,9.52
2022-10-26T23:34:45.691Z,8.10
2022-10-26T23:37:13.837Z,8.80
2022-10-26T23:39:41.962Z,8.80
2022-10-26T23:42:09.883Z,8.07
2022-10-26T23:44:37.815Z,9.60
2022-10-26T23:47:08.640Z,8.10
2022-10-26T23:49:36.623Z,8.43
2022-10-26T23:52:04.611Z,8.88
2022-10-26T23:54:32.670Z,8.32
2022-10-26T23:57:00.656Z,8.52
2022-10-26T23:59:28.593Z,8.45
